松山國際航空站 - 塔臺

METAR RCSS 270900Z 08013KT 9999 FEW028 BKN050 26/21 Q1013 NOSIG RMK A2994(X)=

站台狀態:Offline
最後更新:2020-10-27 17:00:01